Time;durP1;ratioP1;P1;durP2;ratioP2;P2;SDS_P1;SDS_P2;PMS_P1;PMS_P2;Temp;Humidity;BMP_temperature;BMP_pressure;BME280_temperature;BME280_humidity;BME280_pressure;Samples;Min_cycle;Max_cycle;Signal;HPM_P1;HPM_P2
2021/08/15 00:02:24;;;;;;;14.90;7.32;;;;;;;15.88;75.67;99803.41;5029820;28;20485;-69
2021/08/15 00:04:49;;;;;;;11.93;6.38;;;;;;;15.89;75.63;99797.94;5030625;28;20033;-71
2021/08/15 00:07:15;;;;;;;13.52;6.82;;;;;;;15.95;75.29;99798.47;5029281;28;20079;-71
2021/08/15 00:09:40;;;;;;;14.60;6.50;;;;;;;15.97;75.07;99794.75;5029582;28;20037;-70
2021/08/15 00:12:07;;;;;;;10.55;7.10;;;;;;;15.98;75.33;99790.28;5029797;28;20049;-71
2021/08/15 00:14:34;;;;;;;11.60;6.32;;;;;;;15.99;74.93;99791.97;5029389;28;20030;-71
2021/08/15 00:16:59;;;;;;;13.75;6.43;;;;;;;16.00;74.96;99791.03;5027527;28;20485;-70
2021/08/15 00:19:25;;;;;;;12.80;7.10;;;;;;;16.03;74.96;99790.81;5029471;28;20045;-71
2021/08/15 00:21:50;;;;;;;18.38;6.75;;;;;;;16.04;75.00;99792.50;5030042;28;20124;-71
2021/08/15 00:24:17;;;;;;;10.50;6.80;;;;;;;16.04;74.58;99792.50;5029408;28;20041;-71
2021/08/15 00:26:42;;;;;;;12.55;6.55;;;;;;;16.05;74.43;99791.56;5029129;28;20030;-71
2021/08/15 00:29:07;;;;;;;14.38;7.57;;;;;;;16.05;74.47;99784.44;5029614;28;20107;-71
2021/08/15 00:31:33;;;;;;;11.15;6.63;;;;;;;16.06;74.32;99782.59;5029687;28;20504;-71
2021/08/15 00:33:59;;;;;;;11.02;6.32;;;;;;;16.05;74.56;99788.91;5029394;28;20044;-71
2021/08/15 00:36:25;;;;;;;11.07;6.57;;;;;;;16.01;74.19;99784.75;5029224;28;20037;-71
2021/08/15 00:38:50;;;;;;;11.93;6.63;;;;;;;15.96;74.51;99779.75;5026674;28;20033;-71
2021/08/15 00:41:15;;;;;;;10.05;5.57;;;;;;;15.93;74.66;99782.63;5009716;28;20398;-70
2021/08/15 00:43:41;;;;;;;15.10;7.60;;;;;;;15.92;74.75;99774.75;5009272;28;20092;-71
2021/08/15 00:46:11;;;;;;;16.40;6.65;;;;;;;15.93;74.74;99781.81;5009574;28;20414;-71
2021/08/15 00:48:37;;;;;;;12.55;6.22;;;;;;;15.93;74.90;99774.66;5008499;28;20033;-71
2021/08/15 00:51:03;;;;;;;9.60;5.78;;;;;;;15.93;74.73;99766.69;5009378;28;20060;-71
2021/08/15 00:53:30;;;;;;;9.70;6.43;;;;;;;15.93;74.69;99766.69;5009219;28;20729;-71
2021/08/15 00:55:57;;;;;;;8.63;5.15;;;;;;;15.92;74.55;99764.97;5009202;28;20124;-72
2021/08/15 00:58:23;;;;;;;10.52;6.13;;;;;;;15.95;74.55;99758.59;5009229;28;20045;-72
2021/08/15 01:00:48;;;;;;;9.88;6.05;;;;;;;15.94;74.62;99757.75;4986632;28;20037;-72
2021/08/15 01:03:13;;;;;;;11.50;6.22;;;;;;;15.97;74.63;99754.84;5009341;28;20037;-72
2021/08/15 01:05:39;;;;;;;12.60;7.68;;;;;;;15.98;74.48;99747.75;5009464;28;20698;-71
2021/08/15 01:08:05;;;;;;;11.77;6.18;;;;;;;15.97;74.30;99749.53;5007461;28;20156;-71
2021/08/15 01:10:33;;;;;;;13.38;6.30;;;;;;;15.93;74.46;99747.25;5021295;28;20060;-71
2021/08/15 01:12:58;;;;;;;13.70;7.43;;;;;;;15.89;74.43;99743.94;5028727;28;20029;-71
2021/08/15 01:15:24;;;;;;;10.98;5.90;;;;;;;15.84;74.60;99744.25;5028687;28;20052;-71
2021/08/15 01:17:49;;;;;;;13.43;7.40;;;;;;;15.79;75.01;99741.09;5028803;28;20037;-71
2021/08/15 01:20:15;;;;;;;11.80;5.93;;;;;;;15.77;75.19;99744.81;5028699;28;20033;-70
2021/08/15 01:22:45;;;;;;;13.93;7.10;;;;;;;15.75;75.15;99736.09;5028636;28;20048;-71
2021/08/15 01:25:11;;;;;;;12.00;6.57;;;;;;;15.74;74.99;99735.25;5028625;28;20038;-69
2021/08/15 01:27:42;;;;;;;12.45;5.85;;;;;;;15.76;74.96;99735.16;5028034;28;20040;-71
2021/08/15 01:30:10;;;;;;;11.68;6.68;;;;;;;15.81;74.95;99738.31;5028696;28;20038;-71
2021/08/15 01:32:38;;;;;;;24.58;8.18;;;;;;;15.78;74.88;99728.75;5028497;28;20033;-68
2021/08/15 01:35:04;;;;;;;10.40;6.63;;;;;;;15.66;75.12;99730.44;5028578;28;20462;-71
2021/08/15 01:37:30;;;;;;;13.85;7.35;;;;;;;15.65;75.62;99731.44;5028043;28;20034;-71
2021/08/15 01:40:01;;;;;;;9.98;7.25;;;;;;;15.69;75.25;99729.38;5015279;28;20087;-71
2021/08/15 01:42:27;;;;;;;13.45;7.05;;;;;;;15.71;75.29;99726.66;5021582;28;20155;-71
2021/08/15 01:44:52;;;;;;;13.90;6.82;;;;;;;15.67;75.42;99733.94;5028569;28;20040;-71
2021/08/15 01:47:17;;;;;;;15.85;6.80;;;;;;;15.71;75.32;99726.66;5028220;28;20041;-71
2021/08/15 01:49:43;;;;;;;12.07;7.25;;;;;;;15.67;75.33;99737.44;5028032;28;20033;-71
2021/08/15 01:52:08;;;;;;;14.23;6.22;;;;;;;15.64;75.47;99729.72;5028340;28;20037;-71
2021/08/15 01:54:33;;;;;;;29.90;7.57;;;;;;;15.64;75.55;99726.19;5028037;28;20033;-70
2021/08/15 01:56:58;;;;;;;12.95;7.25;;;;;;;15.66;75.49;99729.59;5028059;28;20132;-71
2021/08/15 01:59:27;;;;;;;12.93;6.78;;;;;;;15.65;75.24;99726.09;5027999;28;20029;-71
2021/08/15 02:01:52;;;;;;;16.08;6.63;;;;;;;15.60;75.48;99720.28;5028140;28;20458;-71
2021/08/15 02:04:18;;;;;;;15.65;7.65;;;;;;;15.57;75.31;99727.59;5028760;28;20091;-71
2021/08/15 02:06:43;;;;;;;13.10;5.95;;;;;;;15.49;75.86;99714.84;5027390;28;20109;-71
2021/08/15 02:09:08;;;;;;;13.82;6.63;;;;;;;15.50;75.87;99713.03;5028030;28;20060;-70
2021/08/15 02:11:34;;;;;;;16.45;7.28;;;;;;;15.43;76.11;99709.97;5027522;28;20025;-70
2021/08/15 02:13:59;;;;;;;10.55;5.68;;;;;;;15.43;76.20;99705.53;5026454;28;20062;-72
2021/08/15 02:16:24;;;;;;;13.45;5.95;;;;;;;15.47;76.10;99706.13;5027833;28;20053;-71
2021/08/15 02:18:49;;;;;;;8.52;5.28;;;;;;;15.49;75.92;99704.22;5028952;28;20045;-71
2021/08/15 02:21:15;;;;;;;9.02;5.55;;;;;;;15.53;75.94;99700.41;5031768;28;20061;-71
2021/08/15 02:23:40;;;;;;;10.10;5.78;;;;;;;15.57;75.81;99701.88;5031692;28;20334;-70
2021/08/15 02:26:05;;;;;;;15.93;6.57;;;;;;;15.59;75.61;99705.28;5031291;28;20099;-70
2021/08/15 02:28:31;;;;;;;10.85;6.35;;;;;;;15.57;75.96;99699.22;5031050;28;20037;-70
2021/08/15 02:30:56;;;;;;;12.50;5.90;;;;;;;15.56;75.82;99694.88;5031729;28;20037;-70
2021/08/15 02:33:21;;;;;;;11.75;6.00;;;;;;;15.54;76.35;99698.59;5031870;28;20033;-71
2021/08/15 02:35:47;;;;;;;13.10;5.78;;;;;;;15.53;76.55;99695.09;5031137;28;20040;-70
2021/08/15 02:38:12;;;;;;;10.13;5.25;;;;;;;15.55;76.01;99687.84;5030560;28;20041;-71
2021/08/15 02:40:38;;;;;;;9.00;5.53;;;;;;;15.54;76.04;99688.81;5013165;28;20034;-71
2021/08/15 02:43:03;;;;;;;6.25;4.32;;;;;;;15.57;75.83;99685.09;5010887;28;20100;-71
2021/08/15 02:45:29;;;;;;;10.75;5.03;;;;;;;15.60;75.96;99664.47;5009613;28;20525;-71
2021/08/15 02:47:54;;;;;;;9.93;4.97;;;;;;;15.61;75.85;99674.13;5008659;28;20044;-71
2021/08/15 02:50:21;;;;;;;10.25;5.35;;;;;;;15.63;75.49;99666.06;5011197;28;20044;-71
2021/08/15 02:52:46;;;;;;;10.82;5.15;;;;;;;15.64;75.72;99662.44;5010060;28;20447;-71
2021/08/15 02:55:12;;;;;;;8.90;5.35;;;;;;;15.63;75.62;99655.44;5009854;28;20096;-70
2021/08/15 02:57:38;;;;;;;7.97;5.25;;;;;;;15.62;75.57;99667.00;5009315;28;20026;-69
2021/08/15 03:00:09;;;;;;;10.90;6.00;;;;;;;15.62;75.49;99654.56;5010926;28;20091;-70
2021/08/15 03:02:34;;;;;;;8.75;5.10;;;;;;;15.64;75.24;99660.59;5011209;28;20087;-71
2021/08/15 03:05:00;;;;;;;9.82;5.00;;;;;;;15.65;75.48;99654.34;5013867;28;20453;-70
2021/08/15 03:07:26;;;;;;;11.65;5.13;;;;;;;15.59;75.51;99649.47;5030204;28;20056;-72
2021/08/15 03:09:52;;;;;;;11.10;4.70;;;;;;;15.59;75.49;99659.25;5030339;28;20041;-70
2021/08/15 03:12:17;;;;;;;9.65;4.53;;;;;;;15.56;75.63;99649.69;5030951;28;20048;-72
2021/08/15 03:14:43;;;;;;;8.15;4.50;;;;;;;15.58;75.53;99650.44;5030863;28;20496;-71
2021/08/15 03:17:08;;;;;;;9.23;4.63;;;;;;;15.60;75.64;99650.31;5030249;28;20037;-72
2021/08/15 03:19:35;;;;;;;11.48;4.18;;;;;;;15.57;75.62;99642.56;5030711;28;20021;-71
2021/08/15 03:22:00;;;;;;;10.35;4.10;;;;;;;15.55;75.41;99642.66;5030768;28;20548;-71
2021/08/15 03:24:26;;;;;;;8.07;4.25;;;;;;;15.53;75.54;99644.59;5031097;28;20168;-72
2021/08/15 03:26:51;;;;;;;9.68;4.72;;;;;;;15.53;75.20;99638.41;5030238;28;20096;-71
2021/08/15 03:29:17;;;;;;;6.85;4.10;;;;;;;15.56;75.29;99643.53;5030696;28;20034;-72
2021/08/15 03:31:44;;;;;;;9.25;4.40;;;;;;;15.56;75.25;99639.06;5029848;28;20055;-70
2021/08/15 03:34:10;;;;;;;7.15;4.13;;;;;;;15.55;75.43;99636.50;5030289;28;20052;-72
2021/08/15 03:36:36;;;;;;;6.95;3.75;;;;;;;15.55;75.28;99631.19;5031021;28;20576;-71
2021/08/15 03:39:02;;;;;;;8.20;4.03;;;;;;;15.54;75.58;99632.16;5026158;28;20401;-71
2021/08/15 03:41:27;;;;;;;6.07;4.30;;;;;;;15.52;75.52;99624.28;5010079;28;20107;-71
2021/08/15 03:43:52;;;;;;;8.38;3.95;;;;;;;15.52;75.26;99626.94;5011239;28;20500;-71
2021/08/15 03:46:18;;;;;;;8.82;4.20;;;;;;;15.49;75.71;99621.88;5009935;28;20049;-68
2021/08/15 03:48:43;;;;;;;6.72;3.22;;;;;;;15.49;75.49;99619.22;5009987;28;20040;-71
2021/08/15 03:51:09;;;;;;;10.90;5.13;;;;;;;15.49;75.78;99621.03;5010466;28;20042;-70
2021/08/15 03:53:34;;;;;;;10.45;4.47;;;;;;;15.48;75.45;99620.19;5010218;28;20032;-71
2021/08/15 03:56:00;;;;;;;6.43;4.15;;;;;;;15.46;75.63;99617.63;5008771;28;20034;-70
2021/08/15 03:58:25;;;;;;;7.85;4.50;;;;;;;15.45;75.69;99615.06;5009463;28;20037;-71
2021/08/15 04:00:50;;;;;;;10.20;4.32;;;;;;;15.44;75.44;99618.69;5010447;28;20049;-70
2021/08/15 04:03:16;;;;;;;7.93;4.10;;;;;;;15.44;75.57;99614.22;5010404;28;20045;-71
2021/08/15 04:05:42;;;;;;;7.03;3.78;;;;;;;15.45;75.55;99607.09;5010160;28;20471;-70
2021/08/15 04:08:08;;;;;;;9.18;4.32;;;;;;;15.44;75.79;99614.22;5009203;28;20034;-70
2021/08/15 04:10:34;;;;;;;9.48;4.63;;;;;;;15.43;75.77;99611.66;5009647;28;20034;-70
2021/08/15 04:12:59;;;;;;;7.78;4.00;;;;;;;15.40;76.04;99606.59;5009793;28;20398;-70
2021/08/15 04:15:25;;;;;;;7.25;3.60;;;;;;;15.42;75.75;99615.28;5009845;28;20125;-71
2021/08/15 04:17:51;;;;;;;5.93;3.83;;;;;;;15.42;75.77;99609.97;5009781;28;20045;-71
2021/08/15 04:20:16;;;;;;;8.68;5.65;;;;;;;15.44;75.79;99605.41;5008531;28;20034;-69
2021/08/15 04:22:42;;;;;;;15.05;9.10;;;;;;;15.43;75.85;99611.66;5009737;28;20026;-69
2021/08/15 04:25:09;;;;;;;15.90;9.50;;;;;;;15.45;75.81;99612.41;5009766;28;20419;-70
2021/08/15 04:27:34;;;;;;;12.95;8.68;;;;;;;15.50;75.68;99615.59;5007638;28;20497;-70
2021/08/15 04:29:59;;;;;;;11.18;5.85;;;;;;;15.53;75.50;99615.38;5009731;28;20069;-71
2021/08/15 04:32:25;;;;;;;11.15;5.97;;;;;;;15.57;75.49;99616.00;5009964;28;20045;-71
2021/08/15 04:34:50;;;;;;;9.05;4.97;;;;;;;15.61;75.26;99613.00;5010436;28;20121;-70
2021/08/15 04:37:18;;;;;;;7.38;3.97;;;;;;;15.64;75.38;99607.47;4991267;28;20033;-71
2021/08/15 04:39:46;;;;;;;8.15;3.70;;;;;;;15.67;75.18;99603.72;5007645;28;20060;-71
2021/08/15 04:42:12;;;;;;;8.00;5.80;;;;;;;15.68;75.00;99606.28;5009676;28;20058;-71
2021/08/15 04:44:38;;;;;;;9.98;4.38;;;;;;;15.71;74.97;99605.25;5009523;28;20516;-71
2021/08/15 04:47:03;;;;;;;7.50;4.13;;;;;;;15.74;74.83;99604.16;5009220;28;20072;-72
2021/08/15 04:49:29;;;;;;;6.75;4.10;;;;;;;15.73;74.77;99603.31;5008149;28;20119;-71
2021/08/15 04:51:55;;;;;;;8.63;3.40;;;;;;;15.73;75.04;99598.00;5010129;28;20034;-71
2021/08/15 04:54:26;;;;;;;5.78;3.55;;;;;;;15.77;75.09;99603.94;5008938;28;20030;-71
2021/08/15 04:56:51;;;;;;;6.00;3.78;;;;;;;15.81;74.78;99602.75;5009573;28;20088;-71
2021/08/15 04:59:17;;;;;;;9.55;3.38;;;;;;;15.84;75.09;99599.88;5009666;28;20030;-70
2021/08/15 05:01:42;;;;;;;5.75;3.33;;;;;;;15.88;75.13;99604.00;5022537;28;20029;-71
2021/08/15 05:04:07;;;;;;;5.80;3.63;;;;;;;15.92;74.89;99597.47;5026909;28;20038;-70
2021/08/15 05:06:33;;;;;;;9.10;3.63;;;;;;;15.97;74.99;99605.94;5028540;28;20126;-70
2021/08/15 05:08:58;;;;;;;13.98;4.05;;;;;;;16.02;74.66;99606.50;5028255;28;20107;-71
2021/08/15 05:11:24;;;;;;;7.95;4.10;;;;;;;16.09;74.68;99612.16;5029424;28;20048;-71
2021/08/15 05:13:49;;;;;;;6.63;3.05;;;;;;;16.14;74.12;99604.69;5029032;28;20417;-71
2021/08/15 05:16:15;;;;;;;5.68;3.28;;;;;;;16.18;73.99;99610.66;5027820;28;25519;-74
2021/08/15 05:18:41;;;;;;;6.18;3.65;;;;;;;16.21;74.38;99602.44;5026277;28;20049;-71
2021/08/15 05:21:06;;;;;;;5.60;3.47;;;;;;;16.24;74.53;99604.84;5048067;28;20407;-70
2021/08/15 05:23:31;;;;;;;7.05;3.33;;;;;;;16.28;74.32;99593.03;5028489;28;20041;-69
2021/08/15 05:25:57;;;;;;;6.68;3.80;;;;;;;16.29;74.32;99603.56;5027271;28;20040;-72
2021/08/15 05:28:22;;;;;;;6.30;3.20;;;;;;;16.34;74.31;99595.19;5026974;28;20490;-72
2021/08/15 05:30:47;;;;;;;7.10;3.88;;;;;;;16.37;74.32;99596.81;5028638;28;20129;-71
2021/08/15 05:33:12;;;;;;;5.45;3.17;;;;;;;16.40;74.05;99591.25;5028409;28;20041;-71
2021/08/15 05:35:38;;;;;;;6.80;4.28;;;;;;;16.44;74.14;99590.91;5028527;28;20116;-71
2021/08/15 05:38:03;;;;;;;6.85;2.92;;;;;;;16.49;74.46;99593.19;5027712;28;20038;-71
2021/08/15 05:40:28;;;;;;;11.38;8.15;;;;;;;16.53;74.51;99591.97;5012248;28;20038;-70
2021/08/15 05:42:54;;;;;;;8.80;4.68;;;;;;;16.60;74.15;99582.56;5015543;28;20134;-70
2021/08/15 05:45:19;;;;;;;6.13;3.67;;;;;;;16.63;74.11;99592.97;5044059;28;20037;-71
2021/08/15 05:47:44;;;;;;;8.48;4.07;;;;;;;16.66;74.06;99591.88;5027301;28;20091;-71
2021/08/15 05:50:10;;;;;;;6.10;3.05;;;;;;;16.74;74.14;99586.81;5028001;28;20069;-72
2021/08/15 05:52:36;;;;;;;5.63;3.47;;;;;;;16.79;74.23;99584.69;5028501;28;20040;-71
2021/08/15 05:55:01;;;;;;;13.05;4.55;;;;;;;16.89;73.97;99590.97;5030935;28;20091;-71
2021/08/15 05:57:26;;;;;;;8.75;4.65;;;;;;;16.96;74.06;99586.03;5030205;28;20079;-70
2021/08/15 05:59:52;;;;;;;8.15;5.90;;;;;;;17.09;73.84;99596.53;5032698;28;20440;-71
2021/08/15 06:02:17;;;;;;;10.10;6.05;;;;;;;17.20;73.88;99596.53;5031884;28;20025;-71
2021/08/15 06:04:42;;;;;;;9.63;5.32;;;;;;;17.30;73.71;99594.84;5031791;28;20079;-71
2021/08/15 06:07:10;;;;;;;9.23;5.22;;;;;;;17.37;73.59;99588.03;5031332;28;20033;-71
2021/08/15 06:09:36;;;;;;;8.13;4.43;;;;;;;17.47;73.70;99582.78;5031229;28;20037;-72
2021/08/15 06:12:05;;;;;;;5.63;3.53;;;;;;;17.62;73.70;99586.03;5031439;28;20042;-71
2021/08/15 06:14:30;;;;;;;5.75;3.72;;;;;;;17.81;73.16;99580.06;5031898;28;20095;-72
2021/08/15 06:16:56;;;;;;;6.95;3.33;;;;;;;17.96;73.20;99578.78;5031772;28;20060;-70
2021/08/15 06:19:21;;;;;;;8.07;3.53;;;;;;;18.11;72.87;99576.66;5031966;28;20045;-72
2021/08/15 06:21:46;;;;;;;7.80;4.25;;;;;;;18.30;70.79;99575.13;5031825;28;20030;-70
2021/08/15 06:24:11;;;;;;;5.07;3.22;;;;;;;18.47;71.13;99574.53;5031704;28;20060;-71
2021/08/15 06:26:37;;;;;;;5.93;3.15;;;;;;;18.65;70.31;99578.28;5030872;28;20156;-70
2021/08/15 06:29:02;;;;;;;5.18;3.20;;;;;;;18.82;70.03;99576.00;5030197;28;20132;-71
2021/08/15 06:31:28;;;;;;;5.78;3.17;;;;;;;18.96;69.48;99578.34;5031537;28;20065;-71
2021/08/15 06:33:53;;;;;;;6.72;2.95;;;;;;;19.12;68.47;99574.31;5032060;28;20175;-70
2021/08/15 06:36:18;;;;;;;5.00;2.97;;;;;;;19.25;68.38;99566.91;5031424;28;20034;-71
2021/08/15 06:38:44;;;;;;;7.68;3.78;;;;;;;19.42;67.25;99570.72;5028271;28;20029;-71
2021/08/15 06:41:09;;;;;;;5.85;3.08;;;;;;;19.59;67.70;99572.75;5012258;28;20061;-71
2021/08/15 06:43:35;;;;;;;4.03;2.58;;;;;;;19.74;66.94;99565.19;5011998;28;20034;-72
2021/08/15 06:46:00;;;;;;;6.75;3.47;;;;;;;19.91;66.21;99559.16;5011771;28;20443;-73
2021/08/15 06:48:25;;;;;;;6.25;3.15;;;;;;;20.07;64.80;99558.56;5011390;28;20113;-71
2021/08/15 06:50:54;;;;;;;8.40;3.00;;;;;;;20.20;65.25;99555.59;5011630;28;20041;-70
2021/08/15 06:53:21;;;;;;;5.35;2.78;;;;;;;20.31;65.01;99560.81;5029628;28;20025;-71
2021/08/15 06:55:47;;;;;;;4.28;2.90;;;;;;;20.50;64.89;99553.69;5032497;28;20116;-71
2021/08/15 06:58:12;;;;;;;4.85;2.83;;;;;;;20.69;63.88;99550.16;5030662;28;20458;-70
2021/08/15 07:00:37;;;;;;;5.55;2.88;;;;;;;20.90;63.01;99545.44;5031327;28;20477;-73
2021/08/15 07:03:03;;;;;;;5.15;2.58;;;;;;;21.08;62.36;99548.16;5031533;28;20037;-71
2021/08/15 07:05:28;;;;;;;5.18;2.78;;;;;;;21.22;62.33;99539.63;5031462;28;20608;-71
2021/08/15 07:07:53;;;;;;;7.57;4.32;;;;;;;21.39;60.91;99538.00;5031718;28;20041;-71
2021/08/15 07:10:19;;;;;;;7.25;3.42;;;;;;;21.52;59.51;99542.16;5031202;28;20030;-71
2021/08/15 07:12:44;;;;;;;10.32;4.20;;;;;;;21.57;59.95;99542.53;5031485;28;20045;-69
2021/08/15 07:15:10;;;;;;;9.07;3.33;;;;;;;21.63;59.62;99534.75;5030709;28;20582;-71
2021/08/15 07:17:37;;;;;;;5.85;2.47;;;;;;;21.69;60.53;99535.97;5030293;28;20029;-71
2021/08/15 07:20:06;;;;;;;12.45;4.00;;;;;;;21.75;60.27;99531.81;5030632;28;20477;-71
2021/08/15 07:22:32;;;;;;;9.13;3.80;;;;;;;21.84;60.18;99528.22;5030965;28;20408;-71
2021/08/15 07:24:57;;;;;;;6.30;3.25;;;;;;;21.90;60.73;99527.59;5030925;28;20041;-72
2021/08/15 07:27:23;;;;;;;5.53;2.90;;;;;;;21.97;60.38;99533.19;5031694;28;20037;-72
2021/08/15 07:29:49;;;;;;;5.85;3.25;;;;;;;22.06;60.17;99533.09;5031076;28;20521;-71
2021/08/15 07:32:15;;;;;;;9.75;3.45;;;;;;;22.09;60.71;99531.94;5024418;28;20121;-71
2021/08/15 07:34:40;;;;;;;7.65;4.20;;;;;;;22.17;59.58;99531.16;5026759;28;20037;-72
2021/08/15 07:37:08;;;;;;;7.55;3.92;;;;;;;22.30;59.46;99528.97;5029192;28;20030;-72
2021/08/15 07:39:33;;;;;;;5.82;3.47;;;;;;;22.39;58.19;99530.66;5021743;28;20026;-70
2021/08/15 07:41:59;;;;;;;8.90;3.75;;;;;;;22.45;57.79;99527.38;5011060;28;20044;-71
2021/08/15 07:44:24;;;;;;;7.72;3.78;;;;;;;22.51;56.90;99525.88;5011222;28;20034;-72
2021/08/15 07:46:50;;;;;;;6.60;4.55;;;;;;;22.55;56.76;99519.19;5019357;28;20063;-71
2021/08/15 07:49:15;;;;;;;5.93;3.25;;;;;;;22.61;57.09;99523.09;5030322;28;20513;-72
2021/08/15 07:51:52;;;;;;;7.35;3.85;;;;;;;22.76;56.16;99517.97;5031037;28;20107;-74
2021/08/15 07:54:18;;;;;;;9.85;3.15;;;;;;;22.79;55.85;99525.69;5019322;28;20029;-72
2021/08/15 07:56:44;;;;;;;7.32;3.63;;;;;;;22.91;56.08;99527.09;5020787;28;20044;-71
2021/08/15 07:59:10;;;;;;;9.60;3.25;;;;;;;23.17;54.50;99518.16;5029565;28;20048;-71
2021/08/15 08:01:36;;;;;;;7.10;3.47;;;;;;;23.41;54.65;99517.41;5029878;28;20030;-70
2021/08/15 08:04:07;;;;;;;8.75;3.22;;;;;;;23.46;53.65;99523.97;5029807;28;20125;-72
2021/08/15 08:06:36;;;;;;;8.18;3.83;;;;;;;23.49;53.87;99517.41;5030910;28;20037;-73
2021/08/15 08:09:01;;;;;;;5.60;3.40;;;;;;;23.58;52.72;99516.41;5030405;28;20037;-72
2021/08/15 08:11:26;;;;;;;5.47;2.92;;;;;;;23.77;53.45;99508.03;5030912;28;20111;-70
2021/08/15 08:13:52;;;;;;;8.73;3.58;;;;;;;23.97;52.29;99508.56;5030731;28;20034;-76
2021/08/15 08:16:17;;;;;;;11.63;3.80;;;;;;;24.15;50.97;99508.38;5029147;28;20049;-70
2021/08/15 08:18:44;;;;;;;8.80;3.75;;;;;;;24.36;50.82;99507.84;5029893;28;20390;-70
2021/08/15 08:21:18;;;;;;;8.57;4.05;;;;;;;24.62;50.49;99507.66;5028549;28;20048;-72
2021/08/15 08:23:43;;;;;;;10.70;3.80;;;;;;;24.75;49.10;99508.97;5029508;28;20437;-73
2021/08/15 08:26:08;;;;;;;7.05;3.38;;;;;;;24.89;48.28;99510.09;5029569;28;20040;-69
2021/08/15 08:28:34;;;;;;;9.95;3.40;;;;;;;24.97;47.79;99518.16;5029303;28;20033;-71
2021/08/15 08:30:59;;;;;;;6.65;4.18;;;;;;;24.95;47.68;99507.53;5029905;28;20057;-72
2021/08/15 08:33:24;;;;;;;9.38;3.80;;;;;;;24.97;47.07;99516.28;5030906;28;20133;-72
2021/08/15 08:35:50;;;;;;;7.35;3.55;;;;;;;24.89;47.34;99513.63;5030065;28;20034;-73
2021/08/15 08:38:15;;;;;;;10.77;3.42;;;;;;;24.87;48.03;99512.97;5029256;28;20037;-71
2021/08/15 08:40:42;;;;;;;5.55;3.92;;;;;;;24.81;47.88;99516.38;5012413;28;20050;-72
2021/08/15 08:43:20;;;;;;;10.10;4.07;;;;;;;24.75;48.84;99517.88;5014503;28;20062;-72
2021/08/15 08:45:46;;;;;;;6.93;3.88;;;;;;;24.89;49.04;99512.78;5036509;28;20454;-70
2021/08/15 08:48:14;;;;;;;6.10;3.35;;;;;;;25.05;48.92;99510.84;5029455;28;20120;-71
2021/08/15 08:50:41;;;;;;;6.93;3.30;;;;;;;25.26;48.54;99520.22;5028761;28;20053;-71
2021/08/15 08:53:06;;;;;;;9.90;4.00;;;;;;;25.45;48.98;99509.00;5030023;28;20037;-73
2021/08/15 08:55:32;;;;;;;8.25;3.60;;;;;;;25.60;47.84;99511.75;5029324;28;20452;-71
2021/08/15 08:57:57;;;;;;;10.95;3.38;;;;;;;25.75;47.31;99514.53;5028987;28;20091;-71
2021/08/15 09:00:23;;;;;;;7.28;4.38;;;;;;;25.89;46.35;99518.31;5028909;28;20036;-71
2021/08/15 09:02:48;;;;;;;11.25;4.30;;;;;;;25.89;46.19;99515.59;5029135;28;20052;-71
2021/08/15 09:05:14;;;;;;;6.93;3.30;;;;;;;26.05;45.38;99517.34;5029898;28;20029;-71
2021/08/15 09:07:41;;;;;;;9.20;3.97;;;;;;;26.13;44.97;99510.00;5028593;28;20033;-72
2021/08/15 09:10:10;;;;;;;8.23;4.25;;;;;;;26.27;44.87;99500.25;5028797;28;20041;-68
2021/08/15 09:12:44;;;;;;;5.20;3.42;;;;;;;26.37;43.66;99505.38;5029207;28;20032;-71
2021/08/15 09:15:14;;;;;;;8.82;3.67;;;;;;;26.44;43.75;99510.91;5027650;28;20516;-71
2021/08/15 09:17:40;;;;;;;7.70;3.55;;;;;;;26.61;44.14;99508.91;5026679;28;20188;-71
2021/08/15 09:20:08;;;;;;;8.45;3.47;;;;;;;26.80;43.39;99494.78;5028509;28;20080;-72
2021/08/15 09:22:37;;;;;;;9.32;3.67;;;;;;;27.07;42.97;99498.66;5027384;28;20173;-71
2021/08/15 09:25:11;;;;;;;8.55;4.15;;;;;;;27.39;42.50;99488.44;5028994;28;20033;-70
2021/08/15 09:27:42;;;;;;;5.95;3.53;;;;;;;27.59;41.35;99488.66;5028169;28;20332;-72
2021/08/15 09:30:33;;;;;;;7.28;3.78;;;;;;;27.81;41.19;99494.91;5027992;28;20041;-72
2021/08/15 09:33:07;;;;;;;9.05;4.45;;;;;;;28.12;40.71;99480.22;5029389;28;20025;-70
2021/08/15 09:35:35;;;;;;;9.30;4.07;;;;;;;28.78;39.23;99480.66;5029427;28;20025;-71
2021/08/15 09:38:09;;;;;;;7.72;4.25;;;;;;;29.69;36.62;99488.53;5028251;28;20690;-72
2021/08/15 09:40:34;;;;;;;9.02;4.30;;;;;;;30.04;36.50;99492.94;5011983;28;20076;-72
2021/08/15 09:43:01;;;;;;;7.10;3.78;;;;;;;30.78;34.92;99483.63;5015980;28;20449;-72
2021/08/15 09:45:47;;;;;;;9.55;3.75;;;;;;;31.47;33.65;99478.53;5029114;28;20033;-71
2021/08/15 09:48:16;;;;;;;7.57;4.05;;;;;;;31.88;32.79;99476.13;5008763;28;20496;-71
2021/08/15 09:50:41;;;;;;;12.60;4.43;;;;;;;32.42;31.85;99481.16;5008896;28;20391;-71
2021/08/15 09:53:07;;;;;;;7.68;3.83;;;;;;;32.88;30.33;99471.63;5009224;28;20042;-70
2021/08/15 09:55:45;;;;;;;18.05;4.30;;;;;;;33.28;29.96;99473.88;5008354;28;20038;-72
2021/08/15 09:58:17;;;;;;;9.15;4.43;;;;;;;33.32;29.58;99470.44;5008408;28;20097;-72
2021/08/15 10:00:43;;;;;;;6.18;3.80;;;;;;;33.19;30.15;99478.81;5008905;28;20088;-72
2021/08/15 10:03:09;;;;;;;9.07;4.43;;;;;;;33.05;30.18;99478.16;5008841;28;20038;-72
2021/08/15 10:05:35;;;;;;;6.70;3.75;;;;;;;33.41;29.01;99465.47;5009127;28;20037;-71
2021/08/15 10:08:01;;;;;;;6.90;4.05;;;;;;;32.90;29.59;99462.13;5008376;28;20457;-71
2021/08/15 10:10:26;;;;;;;6.63;4.05;;;;;;;32.37;30.07;99464.63;5009509;28;20045;-72
2021/08/15 10:12:52;;;;;;;6.60;4.10;;;;;;;32.44;30.29;99468.94;5008986;28;20033;-71
2021/08/15 10:15:17;;;;;;;6.35;3.72;;;;;;;32.82;30.48;99458.91;5008914;28;20038;-73
2021/08/15 10:17:45;;;;;;;5.47;3.50;;;;;;;32.83;29.93;99460.53;5006888;28;20037;-71
2021/08/15 10:20:18;;;;;;;8.55;4.07;;;;;;;32.99;30.02;99462.66;5008856;28;20053;-70
2021/08/15 10:22:45;;;;;;;5.60;3.95;;;;;;;33.22;28.85;99452.94;5008955;28;20034;-71
2021/08/15 10:25:30;;;;;;;6.05;3.90;;;;;;;33.32;29.73;99453.19;5009073;28;20034;-70
2021/08/15 10:27:56;;;;;;;11.80;3.65;;;;;;;32.83;29.14;99449.63;5007970;28;20104;-71
2021/08/15 10:30:21;;;;;;;9.77;3.65;;;;;;;32.71;29.53;99455.00;5008642;28;20049;-70
2021/08/15 10:32:55;;;;;;;6.70;3.47;;;;;;;32.63;30.25;99449.88;5008340;28;20044;-71
2021/08/15 10:35:30;;;;;;;;;;;;;;;32.04;30.93;99452.94;5009096;28;20323;-71
2021/08/15 10:38:00;;;;;;;8.60;3.53;;;;;;;31.57;31.83;99451.63;5011667;28;19919;-72
2021/08/15 10:40:38;;;;;;;5.80;3.83;;;;;;;30.76;33.26;99444.88;4994619;28;20120;-73
2021/08/15 10:43:08;;;;;;;8.55;3.53;;;;;;;30.13;34.21;99445.47;4994935;28;20050;-72
2021/08/15 10:45:34;;;;;;;5.65;3.42;;;;;;;29.51;36.09;99440.19;4992389;28;20034;-71
2021/08/15 10:48:05;;;;;;;9.13;3.10;;;;;;;29.07;36.53;99443.44;4991506;28;20085;-72
2021/08/15 10:50:40;;;;;;;7.97;3.13;;;;;;;28.74;37.03;99438.69;4992271;28;20039;-72
2021/08/15 10:53:29;;;;;;;6.47;3.00;;;;;;;28.69;38.06;99433.84;4992245;28;20117;-72
2021/08/15 10:56:02;;;;;;;5.72;3.10;;;;;;;28.78;37.68;99436.41;4996129;28;20618;-72
2021/08/15 10:58:41;;;;;;;7.10;3.33;;;;;;;28.75;37.43;99440.38;4995087;28;20034;-73
2021/08/15 11:01:13;;;;;;;8.48;3.60;;;;;;;28.76;37.54;99433.06;4994195;28;20038;-71
2021/08/15 11:03:47;;;;;;;4.57;3.10;;;;;;;28.53;37.88;99427.97;4990529;28;20034;-72
2021/08/15 11:06:31;;;;;;;9.65;3.58;;;;;;;28.40;38.73;99428.66;4992114;28;20038;-72
2021/08/15 11:09:01;;;;;;;5.55;3.33;;;;;;;28.43;38.22;99429.13;4996350;28;20034;-72
2021/08/15 11:11:34;;;;;;;10.02;4.43;;;;;;;28.40;38.40;99424.09;4995840;28;20149;-72
2021/08/15 11:14:17;;;;;;;7.18;2.83;;;;;;;28.47;38.35;99416.00;4995602;28;20049;-71
2021/08/15 11:16:44;;;;;;;8.50;3.63;;;;;;;28.45;38.08;99408.09;4992954;28;20034;-72
2021/08/15 11:19:12;;;;;;;4.78;3.28;;;;;;;28.59;38.59;99414.41;4991727;28;20042;-71
2021/08/15 11:21:59;;;;;;;8.98;4.18;;;;;;;28.68;37.98;99405.06;4992261;28;20034;-71
2021/08/15 11:24:25;;;;;;;7.65;3.33;;;;;;;28.73;37.96;99398.19;4997171;28;20036;-73
2021/08/15 11:26:50;;;;;;;6.97;2.97;;;;;;;28.85;36.72;99393.88;4992630;28;20125;-71
2021/08/15 11:29:19;;;;;;;8.50;3.50;;;;;;;28.99;35.23;99394.72;4993086;28;20023;-70
2021/08/15 11:31:47;;;;;;;5.22;2.95;;;;;;;28.99;36.35;99389.28;4992807;28;20048;-71